CYYU

Kapuskasing Airport

Kapuskasing, Ontario, Canada
METAR CYYU 240300Z VRB02KT 15SM FEW140 SCT250 M01/M03 A3045 RMK AC1CI2 SLP326
Observed Flight Rules
Sep-24 @ 03:00 UTC (an hour ago) Visual Flight Rules
Wind Visibility Clouds
Variable at 2 knots 15 miles
  • Few at 14,000' AGL
  • Scattered at 25,000' AGL
Temperatures Readings
Current -1°C / 30°F
Dewpoint -3°C / 27°F
Humidity 86%
Altimeter 30.45" Hg
Pressure 1032.6 hPa
Elevation 227
METAR CYYU 240300Z VRB02KT 15SM FEW140 SCT250 M01/M03 A3045 RMK AC1CI2 SLP326
Observed Flight Rules
Sep-24 @ 03:00 UTC
(an hour ago)
VFR
Wind Visibility
Variable at 2 knots 15 miles
Clouds
  • Few at 14,000' AGL
  • Scattered at 25,000' AGL
Temperature Dewpoint
-1°C / 30°F -3°C / 27°F
Humidity Altimeter Pressure
86% 30.45" Hg 1032.6 hPa